sensor_id;sensor_type;location;lat;lon;timestamp;pressure;altitude;pressure_sealevel;temperature;humidity
76868;BME280;66168;45.478;11.060;2023-03-19T00:02:04;101062.94;;;10.65;58.32
76868;BME280;66168;45.478;11.060;2023-03-19T00:04:43;101055.77;;;10.59;58.36
76868;BME280;66168;45.478;11.060;2023-03-19T00:07:11;101052.30;;;10.54;58.50
76868;BME280;66168;45.478;11.060;2023-03-19T00:09:38;101047.78;;;10.52;58.36
76868;BME280;66168;45.478;11.060;2023-03-19T00:12:05;101044.29;;;10.51;58.26
76868;BME280;66168;45.478;11.060;2023-03-19T00:14:32;101035.48;;;10.51;57.94
76868;BME280;66168;45.478;11.060;2023-03-19T00:16:59;101033.30;;;10.52;57.63
76868;BME280;66168;45.478;11.060;2023-03-19T00:19:26;101034.65;;;10.54;57.54
76868;BME280;66168;45.478;11.060;2023-03-19T00:21:53;101031.42;;;10.57;57.31
76868;BME280;66168;45.478;11.060;2023-03-19T00:24:20;101032.83;;;10.61;57.37
76868;BME280;66168;45.478;11.060;2023-03-19T00:26:46;101029.48;;;10.63;57.43
76868;BME280;66168;45.478;11.060;2023-03-19T00:29:14;101024.68;;;10.63;57.35
76868;BME280;66168;45.478;11.060;2023-03-19T00:31:41;101027.34;;;10.63;57.29
76868;BME280;66168;45.478;11.060;2023-03-19T00:34:08;101036.95;;;10.62;57.27
76868;BME280;66168;45.478;11.060;2023-03-19T00:36:35;101040.47;;;10.61;57.37
76868;BME280;66168;45.478;11.060;2023-03-19T00:39:03;101036.68;;;10.58;57.29
76868;BME280;66168;45.478;11.060;2023-03-19T00:41:33;101041.27;;;10.55;57.46
76868;BME280;66168;45.478;11.060;2023-03-19T00:44:00;101034.85;;;10.52;57.36
76868;BME280;66168;45.478;11.060;2023-03-19T00:46:28;101036.17;;;10.50;57.48
76868;BME280;66168;45.478;11.060;2023-03-19T00:48:55;101031.02;;;10.46;57.65
76868;BME280;66168;45.478;11.060;2023-03-19T00:51:24;101034.38;;;10.43;57.68
76868;BME280;66168;45.478;11.060;2023-03-19T00:53:51;101039.63;;;10.41;57.53
76868;BME280;66168;45.478;11.060;2023-03-19T00:56:18;101039.70;;;10.40;57.58
76868;BME280;66168;45.478;11.060;2023-03-19T00:58:46;101038.92;;;10.41;57.51
76868;BME280;66168;45.478;11.060;2023-03-19T01:01:15;101038.02;;;10.41;57.44
76868;BME280;66168;45.478;11.060;2023-03-19T01:03:44;101039.48;;;10.42;57.33
76868;BME280;66168;45.478;11.060;2023-03-19T01:06:11;101033.86;;;10.43;57.27
76868;BME280;66168;45.478;11.060;2023-03-19T01:08:38;101033.32;;;10.46;57.11
76868;BME280;66168;45.478;11.060;2023-03-19T01:11:10;101022.64;;;10.50;56.81
76868;BME280;66168;45.478;11.060;2023-03-19T01:13:38;101016.20;;;10.54;56.70
76868;BME280;66168;45.478;11.060;2023-03-19T01:16:05;101009.79;;;10.54;56.64
76868;BME280;66168;45.478;11.060;2023-03-19T01:18:32;101007.11;;;10.59;56.58
76868;BME280;66168;45.478;11.060;2023-03-19T01:20:59;100998.55;;;10.62;56.27
76868;BME280;66168;45.478;11.060;2023-03-19T01:23:28;100991.98;;;10.66;56.21
76868;BME280;66168;45.478;11.060;2023-03-19T01:25:55;100988.52;;;10.69;56.04
76868;BME280;66168;45.478;11.060;2023-03-19T01:28:24;100995.34;;;10.73;55.94
76868;BME280;66168;45.478;11.060;2023-03-19T01:30:51;100994.95;;;10.77;55.73
76868;BME280;66168;45.478;11.060;2023-03-19T01:33:50;101001.20;;;10.81;55.44
76868;BME280;66168;45.478;11.060;2023-03-19T01:36:30;101005.11;;;10.87;55.68
76868;BME280;66168;45.478;11.060;2023-03-19T01:39:02;101007.19;;;10.92;55.39
76868;BME280;66168;45.478;11.060;2023-03-19T01:41:29;101008.58;;;10.96;55.45
76868;BME280;66168;45.478;11.060;2023-03-19T01:44:31;100999.89;;;10.95;55.56
76868;BME280;66168;45.478;11.060;2023-03-19T01:47:40;100989.15;;;10.96;55.55
76868;BME280;66168;45.478;11.060;2023-03-19T01:50:39;100981.61;;;10.97;55.38
76868;BME280;66168;45.478;11.060;2023-03-19T01:53:23;100978.15;;;10.98;54.94
76868;BME280;66168;45.478;11.060;2023-03-19T01:56:14;100969.13;;;10.99;55.05
76868;BME280;66168;45.478;11.060;2023-03-19T01:58:56;100969.05;;;11.02;55.17
76868;BME280;66168;45.478;11.060;2023-03-19T02:01:45;100974.73;;;11.05;55.21
76868;BME280;66168;45.478;11.060;2023-03-19T02:04:13;100982.32;;;11.07;55.36
76868;BME280;66168;45.478;11.060;2023-03-19T02:06:41;100984.30;;;11.10;55.33
76868;BME280;66168;45.478;11.060;2023-03-19T02:09:09;100978.40;;;11.11;55.40
76868;BME280;66168;45.478;11.060;2023-03-19T02:11:36;100974.37;;;11.14;55.35
76868;BME280;66168;45.478;11.060;2023-03-19T02:14:03;100972.08;;;11.16;55.25
76868;BME280;66168;45.478;11.060;2023-03-19T02:16:29;100968.71;;;11.16;55.43
76868;BME280;66168;45.478;11.060;2023-03-19T02:18:57;100970.31;;;11.16;55.46
76868;BME280;66168;45.478;11.060;2023-03-19T02:21:24;100976.41;;;11.14;55.41
76868;BME280;66168;45.478;11.060;2023-03-19T02:24:01;100981.27;;;11.12;55.28
76868;BME280;66168;45.478;11.060;2023-03-19T02:26:47;100978.94;;;11.10;55.17
76868;BME280;66168;45.478;11.060;2023-03-19T02:29:14;100969.66;;;11.09;54.92
76868;BME280;66168;45.478;11.060;2023-03-19T02:31:41;100968.56;;;11.09;54.83
76868;BME280;66168;45.478;11.060;2023-03-19T02:36:38;100971.94;;;11.06;54.97
76868;BME280;66168;45.478;11.060;2023-03-19T02:39:14;100974.20;;;11.05;55.07
76868;BME280;66168;45.478;11.060;2023-03-19T02:41:44;100975.49;;;11.04;55.16
76868;BME280;66168;45.478;11.060;2023-03-19T02:44:11;100977.30;;;11.02;55.11
76868;BME280;66168;45.478;11.060;2023-03-19T02:46:38;100980.56;;;11.02;54.99
76868;BME280;66168;45.478;11.060;2023-03-19T02:49:05;100979.56;;;11.01;55.00
76868;BME280;66168;45.478;11.060;2023-03-19T02:51:32;100980.40;;;11.00;55.12
76868;BME280;66168;45.478;11.060;2023-03-19T02:53:58;100976.24;;;10.99;55.30
76868;BME280;66168;45.478;11.060;2023-03-19T02:56:26;100980.38;;;10.97;55.36
76868;BME280;66168;45.478;11.060;2023-03-19T02:58:53;100984.95;;;10.96;55.43
76868;BME280;66168;45.478;11.060;2023-03-19T03:01:20;100986.75;;;10.95;55.48
76868;BME280;66168;45.478;11.060;2023-03-19T03:03:46;100990.25;;;10.96;55.54
76868;BME280;66168;45.478;11.060;2023-03-19T03:06:13;100993.91;;;10.97;55.53
76868;BME280;66168;45.478;11.060;2023-03-19T03:08:41;100997.51;;;10.96;55.61
76868;BME280;66168;45.478;11.060;2023-03-19T03:11:08;100997.84;;;10.95;55.86
76868;BME280;66168;45.478;11.060;2023-03-19T03:13:35;100994.11;;;10.93;55.80
76868;BME280;66168;45.478;11.060;2023-03-19T03:16:02;100992.73;;;10.90;55.98
76868;BME280;66168;45.478;11.060;2023-03-19T03:18:28;100997.42;;;10.86;56.24
76868;BME280;66168;45.478;11.060;2023-03-19T03:20:55;100997.50;;;10.82;56.39
76868;BME280;66168;45.478;11.060;2023-03-19T03:23:22;100999.37;;;10.80;56.58
76868;BME280;66168;45.478;11.060;2023-03-19T03:25:50;100999.83;;;10.77;56.45
76868;BME280;66168;45.478;11.060;2023-03-19T03:28:18;101000.67;;;10.74;56.93
76868;BME280;66168;45.478;11.060;2023-03-19T03:30:45;100997.91;;;10.74;56.86
76868;BME280;66168;45.478;11.060;2023-03-19T03:33:12;100995.64;;;10.75;56.67
76868;BME280;66168;45.478;11.060;2023-03-19T03:35:39;100990.62;;;10.77;56.98
76868;BME280;66168;45.478;11.060;2023-03-19T03:38:06;100990.71;;;10.79;56.79
76868;BME280;66168;45.478;11.060;2023-03-19T03:40:33;100996.46;;;10.82;56.82
76868;BME280;66168;45.478;11.060;2023-03-19T03:43:01;101002.76;;;10.84;56.58
76868;BME280;66168;45.478;11.060;2023-03-19T03:45:28;101006.20;;;10.88;56.64
76868;BME280;66168;45.478;11.060;2023-03-19T03:47:55;101007.95;;;10.92;56.45
76868;BME280;66168;45.478;11.060;2023-03-19T03:50:22;101005.32;;;10.95;56.42
76868;BME280;66168;45.478;11.060;2023-03-19T03:52:50;101005.36;;;10.98;56.33
76868;BME280;66168;45.478;11.060;2023-03-19T03:55:17;101003.39;;;10.99;56.29
76868;BME280;66168;45.478;11.060;2023-03-19T03:57:44;101003.02;;;11.01;56.41
76868;BME280;66168;45.478;11.060;2023-03-19T04:00:11;101007.98;;;11.01;56.45
76868;BME280;66168;45.478;11.060;2023-03-19T04:02:42;101006.84;;;11.02;56.45
76868;BME280;66168;45.478;11.060;2023-03-19T04:05:12;101008.27;;;11.03;56.42
76868;BME280;66168;45.478;11.060;2023-03-19T04:07:39;101010.97;;;11.03;56.55
76868;BME280;66168;45.478;11.060;2023-03-19T04:10:07;101010.89;;;11.05;56.63
76868;BME280;66168;45.478;11.060;2023-03-19T04:12:36;101011.80;;;11.06;56.48
76868;BME280;66168;45.478;11.060;2023-03-19T04:15:04;101021.40;;;11.06;56.58
76868;BME280;66168;45.478;11.060;2023-03-19T04:17:32;101028.59;;;11.05;56.77
76868;BME280;66168;45.478;11.060;2023-03-19T04:19:58;101024.20;;;11.05;56.72
76868;BME280;66168;45.478;11.060;2023-03-19T04:22:25;101020.48;;;11.04;56.88
76868;BME280;66168;45.478;11.060;2023-03-19T04:24:53;101020.98;;;11.02;56.71
76868;BME280;66168;45.478;11.060;2023-03-19T04:27:20;101031.46;;;10.94;57.58
76868;BME280;66168;45.478;11.060;2023-03-19T04:29:47;101038.60;;;10.78;58.68
76868;BME280;66168;45.478;11.060;2023-03-19T04:32:15;101043.64;;;10.48;60.69
76868;BME280;66168;45.478;11.060;2023-03-19T04:34:42;101050.45;;;10.09;62.14
76868;BME280;66168;45.478;11.060;2023-03-19T04:37:09;101052.27;;;9.71;63.80
76868;BME280;66168;45.478;11.060;2023-03-19T04:39:42;101061.80;;;9.54;64.30
76868;BME280;66168;45.478;11.060;2023-03-19T04:42:10;101062.80;;;9.49;63.23
76868;BME280;66168;45.478;11.060;2023-03-19T04:45:03;101068.48;;;9.52;62.83
76868;BME280;66168;45.478;11.060;2023-03-19T04:47:30;101073.83;;;9.56;64.53
76868;BME280;66168;45.478;11.060;2023-03-19T04:49:58;101077.08;;;9.57;64.29
76868;BME280;66168;45.478;11.060;2023-03-19T04:52:25;101078.06;;;9.61;63.94
76868;BME280;66168;45.478;11.060;2023-03-19T04:54:52;101078.55;;;9.67;63.44
76868;BME280;66168;45.478;11.060;2023-03-19T04:57:19;101083.94;;;9.74;63.44
76868;BME280;66168;45.478;11.060;2023-03-19T04:59:47;101084.01;;;9.78;62.60
76868;BME280;66168;45.478;11.060;2023-03-19T05:02:14;101082.86;;;9.81;62.63
76868;BME280;66168;45.478;11.060;2023-03-19T05:04:41;101085.70;;;9.84;62.90
76868;BME280;66168;45.478;11.060;2023-03-19T05:07:10;101086.84;;;9.89;62.70
76868;BME280;66168;45.478;11.060;2023-03-19T05:09:37;101086.20;;;9.91;62.82
76868;BME280;66168;45.478;11.060;2023-03-19T05:12:04;101092.44;;;9.86;63.58
76868;BME280;66168;45.478;11.060;2023-03-19T05:14:36;101099.06;;;9.73;64.43
76868;BME280;66168;45.478;11.060;2023-03-19T05:17:11;101101.62;;;9.66;64.41
76868;BME280;66168;45.478;11.060;2023-03-19T05:19:47;101107.37;;;9.60;64.70
76868;BME280;66168;45.478;11.060;2023-03-19T05:22:14;101109.05;;;9.59;62.93
76868;BME280;66168;45.478;11.060;2023-03-19T05:24:42;101107.48;;;9.62;62.98
76868;BME280;66168;45.478;11.060;2023-03-19T05:27:09;101101.15;;;9.66;64.24
76868;BME280;66168;45.478;11.060;2023-03-19T05:29:42;101102.52;;;9.69;64.19
76868;BME280;66168;45.478;11.060;2023-03-19T05:32:29;101108.10;;;9.74;64.38
76868;BME280;66168;45.478;11.060;2023-03-19T05:34:58;101113.27;;;9.78;64.18
76868;BME280;66168;45.478;11.060;2023-03-19T05:37:25;101115.58;;;9.83;64.03
76868;BME280;66168;45.478;11.060;2023-03-19T05:39:54;101120.11;;;9.87;63.79
76868;BME280;66168;45.478;11.060;2023-03-19T05:42:21;101118.57;;;9.90;63.63
76868;BME280;66168;45.478;11.060;2023-03-19T05:44:48;101120.20;;;9.93;63.49
76868;BME280;66168;45.478;11.060;2023-03-19T05:47:20;101120.41;;;9.94;63.47
76868;BME280;66168;45.478;11.060;2023-03-19T05:49:53;101119.94;;;9.95;63.34
76868;BME280;66168;45.478;11.060;2023-03-19T05:52:20;101120.40;;;9.96;63.58
76868;BME280;66168;45.478;11.060;2023-03-19T05:54:47;101120.80;;;9.97;63.42
76868;BME280;66168;45.478;11.060;2023-03-19T05:57:26;101123.91;;;9.98;63.42
76868;BME280;66168;45.478;11.060;2023-03-19T06:00:09;101126.02;;;9.98;63.66
76868;BME280;66168;45.478;11.060;2023-03-19T06:02:36;101127.17;;;9.97;63.76
76868;BME280;66168;45.478;11.060;2023-03-19T06:05:14;101125.17;;;9.98;63.85
76868;BME280;66168;45.478;11.060;2023-03-19T06:07:42;101123.05;;;9.98;63.84
76868;BME280;66168;45.478;11.060;2023-03-19T06:10:15;101125.02;;;9.98;64.12
76868;BME280;66168;45.478;11.060;2023-03-19T06:12:43;101127.52;;;9.97;63.89
76868;BME280;66168;45.478;11.060;2023-03-19T06:15:32;101126.83;;;9.97;64.00
76868;BME280;66168;45.478;11.060;2023-03-19T06:18:20;101130.41;;;9.97;63.95
76868;BME280;66168;45.478;11.060;2023-03-19T06:20:47;101133.08;;;9.98;63.94
76868;BME280;66168;45.478;11.060;2023-03-19T06:23:15;101133.62;;;10.00;64.08
76868;BME280;66168;45.478;11.060;2023-03-19T06:25:42;101134.06;;;10.02;64.01
76868;BME280;66168;45.478;11.060;2023-03-19T06:28:09;101141.48;;;10.06;63.91
76868;BME280;66168;45.478;11.060;2023-03-19T06:30:40;101140.79;;;10.08;63.81
76868;BME280;66168;45.478;11.060;2023-03-19T06:33:27;101139.04;;;10.11;63.97
76868;BME280;66168;45.478;11.060;2023-03-19T06:35:57;101139.25;;;10.13;63.88
76868;BME280;66168;45.478;11.060;2023-03-19T06:38:24;101134.63;;;10.14;63.56
76868;BME280;66168;45.478;11.060;2023-03-19T06:40:52;101140.40;;;10.19;63.28
76868;BME280;66168;45.478;11.060;2023-03-19T06:43:18;101144.06;;;10.24;63.36
76868;BME280;66168;45.478;11.060;2023-03-19T06:45:45;101136.98;;;10.30;63.19
76868;BME280;66168;45.478;11.060;2023-03-19T06:48:12;101138.19;;;10.37;63.10
76868;BME280;66168;45.478;11.060;2023-03-19T06:50:39;101141.92;;;10.44;63.08
76868;BME280;66168;45.478;11.060;2023-03-19T06:53:06;101148.79;;;10.48;63.07
76868;BME280;66168;45.478;11.060;2023-03-19T06:55:33;101152.70;;;10.50;63.00
76868;BME280;66168;45.478;11.060;2023-03-19T06:57:59;101154.52;;;10.53;62.88
76868;BME280;66168;45.478;11.060;2023-03-19T07:00:26;101154.72;;;10.58;63.15
76868;BME280;66168;45.478;11.060;2023-03-19T07:02:54;101153.84;;;10.64;62.89
76868;BME280;66168;45.478;11.060;2023-03-19T07:05:21;101157.38;;;10.69;62.74
76868;BME280;66168;45.478;11.060;2023-03-19T07:07:47;101162.56;;;10.73;62.68
76868;BME280;66168;45.478;11.060;2023-03-19T07:10:17;101164.90;;;10.78;62.82
76868;BME280;66168;45.478;11.060;2023-03-19T07:12:44;101164.58;;;10.81;62.85
76868;BME280;66168;45.478;11.060;2023-03-19T07:15:11;101166.27;;;10.84;62.70
76868;BME280;66168;45.478;11.060;2023-03-19T07:17:39;101165.77;;;10.89;62.72
76868;BME280;66168;45.478;11.060;2023-03-19T07:20:06;101167.48;;;10.94;62.51
76868;BME280;66168;45.478;11.060;2023-03-19T07:22:33;101166.35;;;11.02;62.04
76868;BME280;66168;45.478;11.060;2023-03-19T07:25:00;101161.27;;;11.12;62.04
76868;BME280;66168;45.478;11.060;2023-03-19T07:27:26;101160.36;;;11.22;61.75
76868;BME280;66168;45.478;11.060;2023-03-19T07:29:53;101161.62;;;11.32;61.55
76868;BME280;66168;45.478;11.060;2023-03-19T07:32:21;101162.34;;;11.41;61.46
76868;BME280;66168;45.478;11.060;2023-03-19T07:34:49;101163.77;;;11.49;61.04
76868;BME280;66168;45.478;11.060;2023-03-19T07:37:16;101173.90;;;11.57;60.89
76868;BME280;66168;45.478;11.060;2023-03-19T07:39:43;101181.16;;;11.63;61.04
76868;BME280;66168;45.478;11.060;2023-03-19T07:42:09;101185.62;;;11.70;60.67
76868;BME280;66168;45.478;11.060;2023-03-19T07:44:38;101185.92;;;11.77;60.60
76868;BME280;66168;45.478;11.060;2023-03-19T07:47:05;101187.78;;;11.85;60.38
76868;BME280;66168;45.478;11.060;2023-03-19T07:49:41;101190.77;;;11.95;60.59
76868;BME280;66168;45.478;11.060;2023-03-19T07:52:09;101192.67;;;12.07;60.35
76868;BME280;66168;45.478;11.060;2023-03-19T07:54:36;101193.77;;;12.18;60.25
76868;BME280;66168;45.478;11.060;2023-03-19T07:57:03;101190.68;;;12.27;60.09
76868;BME280;66168;45.478;11.060;2023-03-19T07:59:29;101192.47;;;12.38;59.69
76868;BME280;66168;45.478;11.060;2023-03-19T08:01:56;101191.82;;;12.48;59.56
76868;BME280;66168;45.478;11.060;2023-03-19T08:04:23;101188.37;;;12.57;59.40
76868;BME280;66168;45.478;11.060;2023-03-19T08:06:50;101187.81;;;12.67;58.89
76868;BME280;66168;45.478;11.060;2023-03-19T08:09:16;101182.58;;;12.76;58.42
76868;BME280;66168;45.478;11.060;2023-03-19T08:11:43;101182.80;;;12.85;58.13
76868;BME280;66168;45.478;11.060;2023-03-19T08:14:09;101182.52;;;12.95;57.78
76868;BME280;66168;45.478;11.060;2023-03-19T08:16:36;101184.49;;;13.04;57.46
76868;BME280;66168;45.478;11.060;2023-03-19T08:19:03;101184.16;;;13.13;57.05
76868;BME280;66168;45.478;11.060;2023-03-19T08:21:30;101181.08;;;13.22;56.49
76868;BME280;66168;45.478;11.060;2023-03-19T08:23:59;101180.23;;;13.31;55.71
76868;BME280;66168;45.478;11.060;2023-03-19T08:26:25;101180.04;;;13.39;56.02
76868;BME280;66168;45.478;11.060;2023-03-19T08:28:53;101179.94;;;13.45;55.40
76868;BME280;66168;45.478;11.060;2023-03-19T08:31:20;101181.46;;;13.50;55.17
76868;BME280;66168;45.478;11.060;2023-03-19T08:33:46;101181.43;;;13.54;55.29
76868;BME280;66168;45.478;11.060;2023-03-19T08:36:13;101181.15;;;13.57;54.31
76868;BME280;66168;45.478;11.060;2023-03-19T08:38:41;101186.59;;;13.63;54.40
76868;BME280;66168;45.478;11.060;2023-03-19T08:41:08;101184.13;;;13.71;54.42
76868;BME280;66168;45.478;11.060;2023-03-19T08:43:36;101184.02;;;13.81;54.94
76868;BME280;66168;45.478;11.060;2023-03-19T08:46:04;101187.19;;;13.86;54.61
76868;BME280;66168;45.478;11.060;2023-03-19T08:48:31;101192.24;;;13.81;54.29
76868;BME280;66168;45.478;11.060;2023-03-19T08:51:00;101193.16;;;13.76;54.70
76868;BME280;66168;45.478;11.060;2023-03-19T08:53:28;101197.15;;;13.68;54.04
76868;BME280;66168;45.478;11.060;2023-03-19T08:55:58;101200.66;;;13.58;54.84
76868;BME280;66168;45.478;11.060;2023-03-19T08:58:25;101201.79;;;13.55;55.12
76868;BME280;66168;45.478;11.060;2023-03-19T09:00:52;101204.55;;;13.49;54.77
76868;BME280;66168;45.478;11.060;2023-03-19T09:03:20;101207.88;;;13.47;54.85
76868;BME280;66168;45.478;11.060;2023-03-19T09:05:47;101209.42;;;13.53;55.17
76868;BME280;66168;45.478;11.060;2023-03-19T09:08:13;101208.05;;;13.60;54.77
76868;BME280;66168;45.478;11.060;2023-03-19T09:10:40;101206.80;;;13.69;54.48
76868;BME280;66168;45.478;11.060;2023-03-19T09:13:07;101206.14;;;13.69;54.17
76868;BME280;66168;45.478;11.060;2023-03-19T09:15:34;101208.29;;;13.70;54.63
76868;BME280;66168;45.478;11.060;2023-03-19T09:18:01;101209.38;;;13.65;53.96
76868;BME280;66168;45.478;11.060;2023-03-19T09:20:28;101208.78;;;13.68;54.13
76868;BME280;66168;45.478;11.060;2023-03-19T09:22:54;101211.81;;;13.72;53.94
76868;BME280;66168;45.478;11.060;2023-03-19T09:25:21;101214.34;;;13.81;54.27
76868;BME280;66168;45.478;11.060;2023-03-19T09:27:48;101215.20;;;13.84;54.67
76868;BME280;66168;45.478;11.060;2023-03-19T09:30:15;101218.77;;;13.94;54.54
76868;BME280;66168;45.478;11.060;2023-03-19T09:32:41;101220.35;;;14.03;54.49
76868;BME280;66168;45.478;11.060;2023-03-19T09:35:09;101217.82;;;14.08;54.50
76868;BME280;66168;45.478;11.060;2023-03-19T09:37:35;101216.08;;;14.12;54.60
76868;BME280;66168;45.478;11.060;2023-03-19T09:40:03;101214.23;;;14.14;54.45
76868;BME280;66168;45.478;11.060;2023-03-19T09:42:52;101218.50;;;14.18;54.61
76868;BME280;66168;45.478;11.060;2023-03-19T09:45:22;101223.55;;;14.09;53.93
76868;BME280;66168;45.478;11.060;2023-03-19T09:47:53;101224.23;;;14.02;53.97
76868;BME280;66168;45.478;11.060;2023-03-19T09:50:23;101222.41;;;14.01;54.45
76868;BME280;66168;45.478;11.060;2023-03-19T09:52:59;101221.23;;;13.89;54.94
76868;BME280;66168;45.478;11.060;2023-03-19T09:55:37;101222.95;;;13.85;54.97
76868;BME280;66168;45.478;11.060;2023-03-19T09:58:30;101223.58;;;13.83;55.39
76868;BME280;66168;45.478;11.060;2023-03-19T10:00:58;101220.45;;;13.64;56.63
76868;BME280;66168;45.478;11.060;2023-03-19T10:03:43;101223.01;;;13.54;57.32
76868;BME280;66168;45.478;11.060;2023-03-19T10:06:27;101227.20;;;13.45;57.51
76868;BME280;66168;45.478;11.060;2023-03-19T10:12:33;101218.95;;;13.48;57.69
76868;BME280;66168;45.478;11.060;2023-03-19T10:15:15;101220.20;;;13.51;56.50
76868;BME280;66168;45.478;11.060;2023-03-19T10:18:08;101217.40;;;13.57;56.68
76868;BME280;66168;45.478;11.060;2023-03-19T10:25:55;101212.09;;;14.17;55.29
76868;BME280;66168;45.478;11.060;2023-03-19T10:28:26;101209.39;;;14.38;55.64
76868;BME280;66168;45.478;11.060;2023-03-19T10:36:36;101202.05;;;14.97;52.14
76868;BME280;66168;45.478;11.060;2023-03-19T10:39:04;101200.11;;;15.23;52.24
76868;BME280;66168;45.478;11.060;2023-03-19T10:41:52;101195.94;;;15.44;52.11
76868;BME280;66168;45.478;11.060;2023-03-19T10:44:29;101195.20;;;15.69;49.57
76868;BME280;66168;45.478;11.060;2023-03-19T10:46:58;101193.92;;;15.73;47.71
76868;BME280;66168;45.478;11.060;2023-03-19T10:49:25;101188.94;;;15.75;48.69
76868;BME280;66168;45.478;11.060;2023-03-19T10:51:55;101192.98;;;15.89;47.23
76868;BME280;66168;45.478;11.060;2023-03-19T10:54:25;101189.47;;;16.00;47.22
76868;BME280;66168;45.478;11.060;2023-03-19T10:56:57;101185.77;;;16.04;46.22
76868;BME280;66168;45.478;11.060;2023-03-19T10:59:35;101184.44;;;16.16;46.73
76868;BME280;66168;45.478;11.060;2023-03-19T11:02:33;101180.01;;;16.40;45.95
76868;BME280;66168;45.478;11.060;2023-03-19T11:05:07;101172.27;;;16.75;46.74
76868;BME280;66168;45.478;11.060;2023-03-19T11:07:48;101175.38;;;16.70;47.75
76868;BME280;66168;45.478;11.060;2023-03-19T11:10:17;101169.38;;;16.80;47.57
76868;BME280;66168;45.478;11.060;2023-03-19T11:12:50;101173.14;;;17.12;47.98
76868;BME280;66168;45.478;11.060;2023-03-19T11:15:44;101169.63;;;17.14;48.03
76868;BME280;66168;45.478;11.060;2023-03-19T11:18:19;101169.52;;;17.15;46.66
76868;BME280;66168;45.478;11.060;2023-03-19T11:23:21;101165.55;;;17.23;46.75
76868;BME280;66168;45.478;11.060;2023-03-19T11:25:53;101162.06;;;17.22;46.21
76868;BME280;66168;45.478;11.060;2023-03-19T11:28:22;101154.84;;;17.34;46.16
76868;BME280;66168;45.478;11.060;2023-03-19T11:30:54;101151.39;;;17.34;44.73
76868;BME280;66168;45.478;11.060;2023-03-19T11:39:32;101144.20;;;17.66;43.64
76868;BME280;66168;45.478;11.060;2023-03-19T11:42:30;101140.86;;;17.76;44.87
76868;BME280;66168;45.478;11.060;2023-03-19T11:45:31;101134.73;;;17.66;44.23
76868;BME280;66168;45.478;11.060;2023-03-19T11:51:09;101124.69;;;17.23;44.64
76868;BME280;66168;45.478;11.060;2023-03-19T11:56:27;101117.47;;;17.46;43.55
76868;BME280;66168;45.478;11.060;2023-03-19T12:02:16;101111.13;;;17.98;44.05
76868;BME280;66168;45.478;11.060;2023-03-19T12:05:30;101107.00;;;18.14;42.53
76868;BME280;66168;45.478;11.060;2023-03-19T12:08:30;101102.79;;;18.02;42.79
76868;BME280;66168;45.478;11.060;2023-03-19T12:11:15;101099.60;;;18.01;42.02
76868;BME280;66168;45.478;11.060;2023-03-19T12:16:36;101087.91;;;18.58;42.12
76868;BME280;66168;45.478;11.060;2023-03-19T12:27:24;101063.50;;;19.18;41.08
76868;BME280;66168;45.478;11.060;2023-03-19T12:30:11;101065.11;;;19.32;41.03
76868;BME280;66168;45.478;11.060;2023-03-19T12:32:51;101073.42;;;19.41;41.07
76868;BME280;66168;45.478;11.060;2023-03-19T12:35:30;101069.10;;;19.54;40.69
76868;BME280;66168;45.478;11.060;2023-03-19T12:46:26;101059.67;;;18.87;39.78
76868;BME280;66168;45.478;11.060;2023-03-19T12:48:59;101064.05;;;18.74;40.17
76868;BME280;66168;45.478;11.060;2023-03-19T12:51:41;101061.95;;;18.37;40.96
76868;BME280;66168;45.478;11.060;2023-03-19T12:54:17;101059.09;;;17.67;41.96
76868;BME280;66168;45.478;11.060;2023-03-19T12:59:47;101054.49;;;17.03;44.13
76868;BME280;66168;45.478;11.060;2023-03-19T13:02:49;101052.89;;;16.78;45.13
76868;BME280;66168;45.478;11.060;2023-03-19T13:10:46;101042.95;;;16.60;45.66
76868;BME280;66168;45.478;11.060;2023-03-19T13:13:44;101044.54;;;16.43;46.12
76868;BME280;66168;45.478;11.060;2023-03-19T13:16:37;101038.05;;;16.34;46.46
76868;BME280;66168;45.478;11.060;2023-03-19T13:19:24;101033.20;;;16.30;46.65
76868;BME280;66168;45.478;11.060;2023-03-19T13:21:57;101029.43;;;16.22;47.09
76868;BME280;66168;45.478;11.060;2023-03-19T13:24:33;101029.05;;;16.30;47.01
76868;BME280;66168;45.478;11.060;2023-03-19T13:27:01;101026.38;;;16.43;47.28
76868;BME280;66168;45.478;11.060;2023-03-19T13:29:31;101026.23;;;16.52;47.47
76868;BME280;66168;45.478;11.060;2023-03-19T13:32:01;101029.05;;;16.53;46.37
76868;BME280;66168;45.478;11.060;2023-03-19T13:34:34;101031.96;;;16.63;46.28
76868;BME280;66168;45.478;11.060;2023-03-19T13:37:13;101028.98;;;16.88;46.06
76868;BME280;66168;45.478;11.060;2023-03-19T13:39:42;101027.42;;;17.00;45.46
76868;BME280;66168;45.478;11.060;2023-03-19T13:44:51;101020.48;;;17.46;44.57
76868;BME280;66168;45.478;11.060;2023-03-19T14:03:35;101016.41;;;17.10;43.87
76868;BME280;66168;45.478;11.060;2023-03-19T14:06:32;101011.64;;;17.11;44.34
76868;BME280;66168;45.478;11.060;2023-03-19T14:09:00;101016.15;;;16.87;44.33
76868;BME280;66168;45.478;11.060;2023-03-19T14:11:30;101016.20;;;16.71;44.57
76868;BME280;66168;45.478;11.060;2023-03-19T14:14:04;101015.61;;;16.57;44.81
76868;BME280;66168;45.478;11.060;2023-03-19T14:16:34;101013.44;;;16.55;45.30
76868;BME280;66168;45.478;11.060;2023-03-19T14:19:08;101006.21;;;16.45;45.33
76868;BME280;66168;45.478;11.060;2023-03-19T14:22:06;101002.67;;;16.39;45.16
76868;BME280;66168;45.478;11.060;2023-03-19T14:24:42;100999.92;;;16.31;44.66